Airfield :
LOGIN :

Register | Disclaimer

   EN    FR    IT 

 










Legend :    VFR   Marginal VFR   IFR   Intensive IFR   Very Intensive IFR
Visi :
Ceiling :
>= 8 km
>= 3000ft
5 to 8 km
1000 to 3000 ft
1500m to 5 km
500 to 1000 ft
800 to 1500m
200 to 500 ft
< 800m
< 200 ft
Symbols :   Thunderstorms  Fog  Heavy snow  Heavy precipitations  Wind > 20 kt
SIGMETs :     Misc.  Thunderstorms  Icing  Turbulence  Mountain Waves  Volcanic Ashes






- Airport Elevation : 294 ft
- IATA code : NAP


LIRN - Naples Capodichino

CURRENT METAR :
  • 152250Z VRB01KT CAVOK 11/10 Q1021 NOSIG

EXPIRED METARs :
  • 152220Z VRB01KT CAVOK 11/10 Q1021 NOSIG
  • 152150Z VRB01KT 9999 FEW020 13/12 Q1021 NOSIG
  • 152120Z VRB02KT 9999 FEW025 14/12 Q1021 NOSIG
  • 152050Z VRB01KT 9999 FEW025 SCT040 14/12 Q1021 NOSIG
  • 152020Z VRB01KT 9999 FEW020 SCT040 14/12 Q1021 NOSIG

TAF TAF LIRN
Valid from the 15 at 18:00 until the 16 at 18:00 UTC


151700Z 1518/1618 VRB06KT CAVOK
BECMG 1607/1609 18010KT



MET'MAP, your aeronautical weather chart ! - Copyright ORBIFLY December 2007 - Disclaimer

ORBIFLY MET'MAP TEAM :

Programming & Development : Alexandra Zaïnal
Concept & original design : Baudouin d'Aumeries
Assistance for programming : Marc-Olivier Méhu
Technical & hardware support : Manuel Goepfert

Contact : metmap@orbifly.com




SOURCES & CREDITS :

   NOAA